createdAt,value
2023-04-09T00:02:04.622Z,4.55
2023-04-09T00:04:31.632Z,4.65
2023-04-09T00:06:58.607Z,4.70
2023-04-09T00:09:25.761Z,4.97
2023-04-09T00:11:52.677Z,5.30
2023-04-09T00:14:19.651Z,5.18
2023-04-09T00:16:46.805Z,4.80
2023-04-09T00:19:13.855Z,5.30
2023-04-09T00:21:41.133Z,4.80
2023-04-09T00:24:08.213Z,5.07
2023-04-09T00:26:35.265Z,5.45
2023-04-09T00:29:02.357Z,5.55
2023-04-09T00:31:29.385Z,5.28
2023-04-09T00:33:56.487Z,5.47
2023-04-09T00:36:25.886Z,5.05
2023-04-09T00:38:54.221Z,5.55
2023-04-09T00:41:21.383Z,5.60
2023-04-09T00:43:48.344Z,5.88
2023-04-09T00:46:16.275Z,5.45
2023-04-09T00:48:43.471Z,5.28
2023-04-09T00:51:10.454Z,4.95
2023-04-09T00:53:37.470Z,5.70
2023-04-09T00:56:05.665Z,5.15
2023-04-09T00:58:32.657Z,5.78
2023-04-09T01:00:59.717Z,5.78
2023-04-09T01:03:26.865Z,5.80
2023-04-09T01:06:10.230Z,5.00
2023-04-09T01:09:07.164Z,5.45
2023-04-09T01:12:12.394Z,5.20
2023-04-09T01:14:49.377Z,5.53
2023-04-09T01:17:33.602Z,4.82
2023-04-09T01:20:14.270Z,5.50
2023-04-09T01:22:51.944Z,5.22
2023-04-09T01:26:05.421Z,5.40
2023-04-09T01:28:48.908Z,5.68
2023-04-09T01:31:21.352Z,5.25
2023-04-09T01:33:48.301Z,5.28
2023-04-09T01:36:16.185Z,5.55
2023-04-09T01:38:44.818Z,4.93
2023-04-09T01:41:17.518Z,5.43
2023-04-09T01:43:45.714Z,6.50
2023-04-09T01:46:13.626Z,5.70
2023-04-09T01:48:40.963Z,5.50
2023-04-09T01:51:07.941Z,5.55
2023-04-09T01:53:35.403Z,5.53
2023-04-09T01:56:03.566Z,6.25
2023-04-09T01:58:30.769Z,6.13
2023-04-09T02:01:09.837Z,6.10
2023-04-09T02:03:46.319Z,7.25
2023-04-09T02:06:40.154Z,5.90
2023-04-09T02:09:09.814Z,5.88
2023-04-09T02:11:43.334Z,6.10
2023-04-09T02:14:11.948Z,6.45
2023-04-09T02:16:40.685Z,6.38
2023-04-09T02:19:08.123Z,5.85
2023-04-09T02:21:35.129Z,6.47
2023-04-09T02:24:02.063Z,5.78
2023-04-09T02:26:28.981Z,5.95
2023-04-09T02:28:55.940Z,6.47
2023-04-09T02:31:23.016Z,6.25
2023-04-09T02:33:51.664Z,6.32
2023-04-09T02:36:18.558Z,6.13
2023-04-09T02:38:47.022Z,7.25
2023-04-09T02:41:14.064Z,6.68
2023-04-09T02:43:41.048Z,6.88
2023-04-09T02:46:08.545Z,6.55
2023-04-09T02:48:36.295Z,6.88
2023-04-09T02:51:06.292Z,6.70
2023-04-09T02:53:33.291Z,6.38
2023-04-09T02:56:00.223Z,6.45
2023-04-09T02:58:27.149Z,6.07
2023-04-09T03:00:54.168Z,7.18
2023-04-09T03:03:21.390Z,6.53
2023-04-09T03:05:48.511Z,7.15
2023-04-09T03:08:16.017Z,7.60
2023-04-09T03:10:43.229Z,7.05
2023-04-09T03:13:10.199Z,7.40
2023-04-09T03:15:37.180Z,7.82
2023-04-09T03:18:04.187Z,7.20
2023-04-09T03:20:31.284Z,8.05
2023-04-09T03:22:58.264Z,6.72
2023-04-09T03:25:31.885Z,6.80
2023-04-09T03:28:01.737Z,6.65
2023-04-09T03:30:39.330Z,6.55
2023-04-09T03:33:06.847Z,7.00
2023-04-09T03:35:39.436Z,7.18
2023-04-09T03:38:06.456Z,6.88
2023-04-09T03:40:33.516Z,6.90
2023-04-09T03:43:00.649Z,7.47
2023-04-09T03:45:29.172Z,7.32
2023-04-09T03:48:07.296Z,6.63
2023-04-09T03:50:40.707Z,7.10
2023-04-09T03:53:09.489Z,7.53
2023-04-09T03:55:37.903Z,7.82
2023-04-09T03:58:09.430Z,7.28
2023-04-09T04:00:37.681Z,7.68
2023-04-09T04:03:31.343Z,7.88
2023-04-09T04:06:15.711Z,8.38
2023-04-09T04:08:54.953Z,7.90
2023-04-09T04:11:30.670Z,7.93
2023-04-09T04:13:57.607Z,8.02
2023-04-09T04:16:25.749Z,8.00
2023-04-09T04:18:54.009Z,8.75
2023-04-09T04:21:21.182Z,7.45
2023-04-09T04:23:56.115Z,8.25
2023-04-09T04:26:26.946Z,7.90
2023-04-09T04:28:54.124Z,8.32
2023-04-09T04:31:47.503Z,7.45
2023-04-09T04:34:17.247Z,7.75
2023-04-09T04:39:15.492Z,7.32
2023-04-09T04:41:50.577Z,7.60
2023-04-09T04:44:23.973Z,8.60
2023-04-09T04:46:57.104Z,7.95
2023-04-09T04:49:24.195Z,8.55
2023-04-09T04:51:51.816Z,7.88
2023-04-09T04:54:18.848Z,8.98
2023-04-09T04:56:51.052Z,8.63
2023-04-09T04:59:30.677Z,8.27
2023-04-09T05:02:02.602Z,8.05
2023-04-09T05:04:33.731Z,9.00
2023-04-09T05:07:01.129Z,8.77
2023-04-09T05:09:28.137Z,8.05
2023-04-09T05:12:05.317Z,8.15
2023-04-09T05:14:32.371Z,8.30
2023-04-09T05:16:59.488Z,8.90
2023-04-09T05:19:33.106Z,9.45
2023-04-09T05:22:02.897Z,8.35
2023-04-09T05:24:30.059Z,8.95
2023-04-09T05:26:57.447Z,8.65
2023-04-09T05:29:24.880Z,9.85
2023-04-09T05:31:51.864Z,7.90
2023-04-09T05:34:32.279Z,7.65
2023-04-09T05:37:02.849Z,8.88
2023-04-09T05:39:32.070Z,9.77
2023-04-09T05:42:00.865Z,9.48
2023-04-09T05:44:32.277Z,9.63
2023-04-09T05:47:07.771Z,8.60
2023-04-09T05:49:43.378Z,8.50
2023-04-09T05:52:16.957Z,9.68
2023-04-09T05:54:44.143Z,8.80
2023-04-09T05:57:12.201Z,8.57
2023-04-09T05:59:43.124Z,8.85
2023-04-09T06:02:10.151Z,9.88
2023-04-09T06:04:37.124Z,8.93
2023-04-09T06:07:04.184Z,9.70
2023-04-09T06:09:31.132Z,9.52
2023-04-09T06:11:58.320Z,9.20
2023-04-09T06:14:25.269Z,9.15
2023-04-09T06:16:52.261Z,9.13
2023-04-09T06:19:19.611Z,9.10
2023-04-09T06:21:46.592Z,8.85
2023-04-09T06:24:13.508Z,9.52
2023-04-09T06:26:40.445Z,8.65
2023-04-09T06:29:07.379Z,9.50
2023-04-09T06:31:34.495Z,10.65
2023-04-09T06:34:01.544Z,9.20
2023-04-09T06:36:28.645Z,9.52
2023-04-09T06:38:56.123Z,9.65
2023-04-09T06:41:23.913Z,10.27
2023-04-09T06:43:51.191Z,9.30
2023-04-09T06:46:20.336Z,8.75
2023-04-09T06:48:47.876Z,8.57
2023-04-09T06:51:15.021Z,9.38
2023-04-09T06:53:42.492Z,9.07
2023-04-09T06:56:09.634Z,9.50
2023-04-09T06:58:36.740Z,9.32
2023-04-09T07:01:04.046Z,9.73
2023-04-09T07:03:31.233Z,9.20
2023-04-09T07:05:58.890Z,9.43
2023-04-09T07:08:26.307Z,10.77
2023-04-09T07:10:53.251Z,9.55
2023-04-09T07:13:20.551Z,9.10
2023-04-09T07:15:47.542Z,9.00
2023-04-09T07:18:14.502Z,8.93
2023-04-09T07:20:41.579Z,9.32
2023-04-09T07:23:08.523Z,9.23
2023-04-09T07:25:35.441Z,8.73
2023-04-09T07:28:02.418Z,8.75
2023-04-09T07:30:29.566Z,9.85
2023-04-09T07:32:56.547Z,9.15
2023-04-09T07:35:23.529Z,7.95
2023-04-09T07:37:50.651Z,8.52
2023-04-09T07:40:17.666Z,8.73
2023-04-09T07:42:44.596Z,8.63
2023-04-09T07:45:11.528Z,8.07
2023-04-09T07:47:41.304Z,8.27
2023-04-09T07:50:09.161Z,8.30
2023-04-09T07:52:36.228Z,7.72
2023-04-09T07:55:03.293Z,8.32
2023-04-09T07:57:33.225Z,9.32
2023-04-09T08:00:00.420Z,8.48
2023-04-09T08:03:11.903Z,8.38
2023-04-09T08:05:39.842Z,8.13
2023-04-09T08:08:06.753Z,9.43
2023-04-09T08:10:33.660Z,8.80
2023-04-09T08:13:00.632Z,8.70
2023-04-09T08:15:27.684Z,8.52
2023-04-09T08:17:54.892Z,8.13
2023-04-09T08:20:22.332Z,8.63
2023-04-09T08:22:49.284Z,9.73
2023-04-09T08:25:16.226Z,9.10
2023-04-09T08:27:43.180Z,8.60
2023-04-09T08:30:11.065Z,7.35
2023-04-09T08:32:38.047Z,9.07
2023-04-09T08:35:06.209Z,8.23
2023-04-09T08:37:33.153Z,8.70
2023-04-09T08:40:00.273Z,7.82
2023-04-09T08:42:29.048Z,7.53
2023-04-09T08:44:56.098Z,9.00
2023-04-09T08:47:23.751Z,7.60
2023-04-09T08:49:50.900Z,7.93
2023-04-09T08:52:21.795Z,7.93
2023-04-09T08:57:17.690Z,7.57
2023-04-09T08:59:44.671Z,7.55
2023-04-09T09:02:12.559Z,7.75
2023-04-09T09:04:50.267Z,7.00
2023-04-09T09:07:17.775Z,6.95
2023-04-09T09:09:56.159Z,7.43
2023-04-09T09:12:41.153Z,6.97
2023-04-09T09:15:29.281Z,6.28
2023-04-09T09:17:59.361Z,5.93
2023-04-09T09:20:27.440Z,5.70
2023-04-09T09:22:56.490Z,6.05
2023-04-09T09:25:25.561Z,5.50
2023-04-09T09:27:53.781Z,5.75
2023-04-09T09:30:23.584Z,5.75
2023-04-09T09:33:04.288Z,4.95
2023-04-09T09:35:31.358Z,4.75
2023-04-09T09:38:04.685Z,5.68
2023-04-09T09:40:31.752Z,4.75
2023-04-09T09:42:58.990Z,4.35
2023-04-09T09:45:26.225Z,4.53
2023-04-09T09:47:54.288Z,4.75
2023-04-09T09:50:28.672Z,4.90
2023-04-09T09:53:03.643Z,5.25
2023-04-09T09:55:32.989Z,5.43
2023-04-09T09:58:06.413Z,5.28
2023-04-09T10:00:36.970Z,5.72
2023-04-09T10:03:19.817Z,4.82
2023-04-09T10:05:49.830Z,5.25
2023-04-09T10:08:17.488Z,4.47
2023-04-09T10:10:46.669Z,5.47
2023-04-09T10:13:26.873Z,5.25
2023-04-09T10:15:54.466Z,5.55
2023-04-09T10:18:21.485Z,5.70
2023-04-09T10:20:59.879Z,5.20
2023-04-09T10:23:40.171Z,5.45
2023-04-09T10:26:07.856Z,5.10
2023-04-09T10:28:37.321Z,4.70
2023-04-09T10:31:08.585Z,4.22
2023-04-09T10:33:38.483Z,4.18
2023-04-09T10:36:14.572Z,5.50
2023-04-09T10:38:45.921Z,4.60
2023-04-09T10:41:25.163Z,4.22
2023-04-09T10:43:52.093Z,4.13
2023-04-09T10:46:36.668Z,4.20
2023-04-09T10:49:21.490Z,4.65
2023-04-09T10:52:07.430Z,4.22
2023-04-09T10:54:35.227Z,3.67
2023-04-09T10:57:08.529Z,3.85
2023-04-09T10:59:45.281Z,3.80
2023-04-09T11:02:38.626Z,4.25
2023-04-09T11:05:17.952Z,4.32
2023-04-09T11:07:51.892Z,4.13
2023-04-09T11:10:20.909Z,4.15
2023-04-09T11:12:49.275Z,4.53
2023-04-09T11:15:20.503Z,3.92
2023-04-09T11:17:48.993Z,3.88
2023-04-09T11:20:24.335Z,3.70
2023-04-09T11:22:56.088Z,3.85
2023-04-09T11:25:28.401Z,3.53
2023-04-09T11:27:55.893Z,3.08
2023-04-09T11:30:22.884Z,2.90
2023-04-09T11:32:50.821Z,2.85
2023-04-09T11:35:21.428Z,3.03
2023-04-09T11:37:50.202Z,3.10
2023-04-09T11:40:26.463Z,2.58
2023-04-09T11:42:55.393Z,3.28
2023-04-09T11:45:26.391Z,3.25
2023-04-09T11:47:53.813Z,3.08
2023-04-09T11:50:21.895Z,3.17
2023-04-09T11:52:49.974Z,2.63
2023-04-09T11:55:24.476Z,2.60
2023-04-09T11:57:57.283Z,2.75
2023-04-09T12:00:25.182Z,2.50
2023-04-09T12:03:04.220Z,3.00
2023-04-09T12:05:37.117Z,2.60
2023-04-09T12:08:08.489Z,2.50
2023-04-09T12:10:38.117Z,2.75
2023-04-09T12:13:13.653Z,2.70
2023-04-09T12:15:46.062Z,2.38
2023-04-09T12:18:14.158Z,2.90
2023-04-09T12:20:46.545Z,2.22
2023-04-09T12:23:14.264Z,2.60
2023-04-09T12:25:43.831Z,2.63
2023-04-09T12:28:18.254Z,2.70
2023-04-09T12:30:46.278Z,2.45
2023-04-09T12:33:13.304Z,2.70
2023-04-09T12:35:40.364Z,2.35
2023-04-09T12:38:07.437Z,2.33
2023-04-09T12:40:36.238Z,2.58
2023-04-09T12:43:03.198Z,2.25
2023-04-09T12:45:31.260Z,2.08
2023-04-09T12:47:58.571Z,2.38
2023-04-09T12:50:25.886Z,1.85
2023-04-09T12:52:52.837Z,2.22
2023-04-09T12:55:19.852Z,2.60
2023-04-09T12:57:49.726Z,2.25
2023-04-09T13:00:16.754Z,2.10
2023-04-09T13:02:43.857Z,1.90
2023-04-09T13:05:10.968Z,2.22
2023-04-09T13:07:37.881Z,2.08
2023-04-09T13:10:05.352Z,2.20
2023-04-09T13:12:32.409Z,1.88
2023-04-09T13:14:59.447Z,2.15
2023-04-09T13:17:26.521Z,2.45
2023-04-09T13:19:53.632Z,2.40
2023-04-09T13:22:20.766Z,2.08
2023-04-09T13:24:47.715Z,2.00
2023-04-09T13:27:14.750Z,1.92
2023-04-09T13:29:41.700Z,1.80
2023-04-09T13:32:10.665Z,1.70
2023-04-09T13:34:39.661Z,1.85
2023-04-09T13:37:07.046Z,2.03
2023-04-09T13:39:34.077Z,1.92
2023-04-09T13:42:07.353Z,1.85
2023-04-09T13:44:37.050Z,1.67
2023-04-09T13:47:04.003Z,1.70
2023-04-09T13:49:31.088Z,1.63
2023-04-09T13:51:58.930Z,1.73
2023-04-09T13:54:25.932Z,1.67
2023-04-09T13:56:52.868Z,1.85
2023-04-09T13:59:19.940Z,1.73
2023-04-09T14:01:47.184Z,1.77
2023-04-09T14:04:14.342Z,1.83
2023-04-09T14:06:42.388Z,1.75
2023-04-09T14:09:11.239Z,1.83
2023-04-09T14:11:38.470Z,1.55
2023-04-09T14:14:05.437Z,1.85
2023-04-09T14:16:32.467Z,2.10
2023-04-09T14:18:59.530Z,1.95
2023-04-09T14:21:26.938Z,2.00
2023-04-09T14:23:53.993Z,1.67
2023-04-09T14:26:22.918Z,1.80
2023-04-09T14:28:51.707Z,1.30
2023-04-09T14:31:21.401Z,1.65
2023-04-09T14:33:49.023Z,2.00
2023-04-09T14:36:16.750Z,1.80
2023-04-09T14:38:43.819Z,1.70
2023-04-09T14:41:10.760Z,2.05
2023-04-09T14:43:37.697Z,1.88
2023-04-09T14:46:06.378Z,1.77
2023-04-09T14:48:33.390Z,1.80
2023-04-09T14:51:00.333Z,1.50
2023-04-09T14:53:27.289Z,2.00
2023-04-09T14:55:54.221Z,1.92
2023-04-09T14:58:21.404Z,2.05
2023-04-09T15:00:48.777Z,2.10
2023-04-09T15:03:16.056Z,1.75
2023-04-09T15:05:43.178Z,1.95
2023-04-09T15:08:10.276Z,1.85
2023-04-09T15:10:37.459Z,1.77
2023-04-09T15:13:04.427Z,1.73
2023-04-09T15:15:31.967Z,1.40
2023-04-09T15:18:05.404Z,1.70
2023-04-09T15:20:37.346Z,1.90
2023-04-09T15:23:04.361Z,1.63
2023-04-09T15:25:31.428Z,1.90
2023-04-09T15:27:58.853Z,1.60
2023-04-09T15:30:26.482Z,1.55
2023-04-09T15:32:53.604Z,1.50
2023-04-09T15:35:25.038Z,1.67
2023-04-09T15:37:52.195Z,1.60
2023-04-09T15:40:19.611Z,1.73
2023-04-09T15:42:46.640Z,1.60
2023-04-09T15:45:16.741Z,1.60
2023-04-09T15:47:44.823Z,1.55
2023-04-09T15:50:12.148Z,1.45
2023-04-09T15:52:39.140Z,1.65
2023-04-09T15:55:06.664Z,1.77
2023-04-09T15:57:33.572Z,1.45
2023-04-09T16:00:00.606Z,1.77
2023-04-09T16:02:27.729Z,1.55
2023-04-09T16:04:54.832Z,1.60
2023-04-09T16:07:21.802Z,1.60
2023-04-09T16:09:48.793Z,1.42
2023-04-09T16:12:15.750Z,1.67
2023-04-09T16:14:43.124Z,1.52
2023-04-09T16:17:10.354Z,1.38
2023-04-09T16:19:37.373Z,1.35
2023-04-09T16:22:04.359Z,1.63
2023-04-09T16:24:32.244Z,1.42
2023-04-09T16:26:59.185Z,1.92
2023-04-09T16:29:26.224Z,1.50
2023-04-09T16:31:53.848Z,1.58
2023-04-09T16:34:21.112Z,1.50
2023-04-09T16:36:48.092Z,1.70
2023-04-09T16:39:15.454Z,1.50
2023-04-09T16:41:44.293Z,2.00
2023-04-09T16:44:11.199Z,1.88
2023-04-09T16:46:38.135Z,2.00
2023-04-09T16:49:05.045Z,2.20
2023-04-09T16:51:31.991Z,4.28
2023-04-09T16:53:58.969Z,3.83
2023-04-09T16:56:25.982Z,2.60
2023-04-09T16:58:54.629Z,1.75
2023-04-09T17:01:21.867Z,2.03
2023-04-09T17:03:49.541Z,1.85
2023-04-09T17:06:16.555Z,1.88
2023-04-09T17:08:43.514Z,1.80
2023-04-09T17:11:15.509Z,1.67
2023-04-09T17:13:42.449Z,2.10
2023-04-09T17:16:11.668Z,1.70
2023-04-09T17:18:38.887Z,1.40
2023-04-09T17:21:06.627Z,1.75
2023-04-09T17:23:33.646Z,1.70
2023-04-09T17:26:01.607Z,2.10
2023-04-09T17:28:28.551Z,1.52
2023-04-09T17:30:55.565Z,1.75
2023-04-09T17:33:22.533Z,1.50
2023-04-09T17:35:49.507Z,1.65
2023-04-09T17:38:21.197Z,1.58
2023-04-09T17:40:48.586Z,1.55
2023-04-09T17:43:15.554Z,1.60
2023-04-09T17:45:42.577Z,1.60
2023-04-09T17:48:09.604Z,1.48
2023-04-09T17:50:39.784Z,1.42
2023-04-09T17:53:07.461Z,1.55
2023-04-09T17:55:34.439Z,1.70
2023-04-09T17:58:01.484Z,1.52
2023-04-09T18:00:28.455Z,1.52
2023-04-09T18:02:57.789Z,1.92
2023-04-09T18:05:25.936Z,2.05
2023-04-09T18:07:54.938Z,2.10
2023-04-09T18:10:22.946Z,2.20
2023-04-09T18:12:49.894Z,2.30
2023-04-09T18:15:18.640Z,2.13
2023-04-09T18:17:46.178Z,2.15
2023-04-09T18:20:15.218Z,2.33
2023-04-09T18:22:43.509Z,2.10
2023-04-09T18:25:11.511Z,2.05
2023-04-09T18:27:38.612Z,2.30
2023-04-09T18:30:06.610Z,2.40
2023-04-09T18:32:33.615Z,2.30
2023-04-09T18:35:00.939Z,2.50
2023-04-09T18:37:28.216Z,2.55
2023-04-09T18:39:55.378Z,2.28
2023-04-09T18:42:22.833Z,2.38
2023-04-09T18:44:49.783Z,2.53
2023-04-09T18:47:16.760Z,2.70
2023-04-09T18:49:43.676Z,2.47
2023-04-09T18:52:11.091Z,2.30
2023-04-09T18:54:38.521Z,2.28
2023-04-09T18:57:05.793Z,2.58
2023-04-09T18:59:34.765Z,2.22
2023-04-09T19:02:05.996Z,2.35
2023-04-09T19:04:39.613Z,2.67
2023-04-09T19:07:07.405Z,2.97
2023-04-09T19:09:34.760Z,2.67
2023-04-09T19:12:01.792Z,2.83
2023-04-09T19:14:28.934Z,2.83
2023-04-09T19:16:56.181Z,2.85
2023-04-09T19:19:23.478Z,2.70
2023-04-09T19:21:50.596Z,2.85
2023-04-09T19:24:17.732Z,2.75
2023-04-09T19:26:44.741Z,3.17
2023-04-09T19:29:12.001Z,2.67
2023-04-09T19:31:39.467Z,2.90
2023-04-09T19:34:06.418Z,3.08
2023-04-09T19:36:34.062Z,3.38
2023-04-09T19:39:01.307Z,3.13
2023-04-09T19:41:28.331Z,3.45
2023-04-09T19:43:55.908Z,3.03
2023-04-09T19:46:22.947Z,3.47
2023-04-09T19:48:50.098Z,3.22
2023-04-09T19:51:22.103Z,2.97
2023-04-09T19:53:49.146Z,3.00
2023-04-09T19:56:16.332Z,3.10
2023-04-09T19:58:43.947Z,3.15
2023-04-09T20:01:11.231Z,3.38
2023-04-09T20:03:38.627Z,3.08
2023-04-09T20:06:10.009Z,3.50
2023-04-09T20:08:37.842Z,3.28
2023-04-09T20:11:06.962Z,3.33
2023-04-09T20:13:34.076Z,4.00
2023-04-09T20:16:01.439Z,3.42
2023-04-09T20:18:28.712Z,3.85
2023-04-09T20:20:55.878Z,3.67
2023-04-09T20:23:22.822Z,3.67
2023-04-09T20:25:56.794Z,4.00
2023-04-09T20:28:24.161Z,3.38
2023-04-09T20:30:51.514Z,3.88
2023-04-09T20:33:18.836Z,3.83
2023-04-09T20:35:48.046Z,3.72
2023-04-09T20:38:15.444Z,3.88
2023-04-09T20:40:42.389Z,3.30
2023-04-09T20:43:09.572Z,3.63
2023-04-09T20:45:36.498Z,3.83
2023-04-09T20:48:03.761Z,3.75
2023-04-09T20:50:30.997Z,3.67
2023-04-09T20:52:58.979Z,3.42
2023-04-09T20:55:26.444Z,3.80
2023-04-09T20:57:56.620Z,4.15
2023-04-09T21:00:23.898Z,4.15
2023-04-09T21:02:51.501Z,3.88
2023-04-09T21:05:23.557Z,4.05
2023-04-09T21:07:53.137Z,3.45
2023-04-09T21:10:20.842Z,3.65
2023-04-09T21:12:47.916Z,3.67
2023-04-09T21:15:15.285Z,4.03
2023-04-09T21:17:42.236Z,4.50
2023-04-09T21:20:10.259Z,3.78
2023-04-09T21:22:37.320Z,3.67
2023-04-09T21:25:04.863Z,4.60
2023-04-09T21:27:31.791Z,3.95
2023-04-09T21:29:58.839Z,4.03
2023-04-09T21:32:26.069Z,4.63
2023-04-09T21:34:54.000Z,4.13
2023-04-09T21:37:20.963Z,4.20
2023-04-09T21:39:48.834Z,4.15
2023-04-09T21:42:15.892Z,3.97
2023-04-09T21:44:42.841Z,4.47
2023-04-09T21:47:10.765Z,4.47
2023-04-09T21:49:40.153Z,4.28
2023-04-09T21:52:14.074Z,4.22
2023-04-09T21:54:42.336Z,4.32
2023-04-09T21:57:10.434Z,4.18
2023-04-09T21:59:38.464Z,4.18
2023-04-09T22:02:05.735Z,4.55
2023-04-09T22:04:35.019Z,4.78
2023-04-09T22:07:03.235Z,4.70
2023-04-09T22:09:31.272Z,4.78
2023-04-09T22:11:59.406Z,4.25
2023-04-09T22:14:29.193Z,4.25
2023-04-09T22:16:58.196Z,5.05
2023-04-09T22:19:26.456Z,4.97
2023-04-09T22:21:54.102Z,4.93
2023-04-09T22:24:26.839Z,4.80
2023-04-09T22:26:54.014Z,4.03
2023-04-09T22:29:20.973Z,4.65
2023-04-09T22:31:47.896Z,4.45
2023-04-09T22:34:21.435Z,4.60
2023-04-09T22:36:49.107Z,4.50
2023-04-09T22:39:16.114Z,4.65
2023-04-09T22:41:43.636Z,4.70
2023-04-09T22:44:10.667Z,4.75
2023-04-09T22:46:37.685Z,4.65
2023-04-09T22:49:06.043Z,4.80
2023-04-09T22:51:36.455Z,4.15
2023-04-09T22:54:03.524Z,4.70
2023-04-09T22:56:32.022Z,4.53
2023-04-09T22:58:59.339Z,4.88
2023-04-09T23:01:27.439Z,4.60
2023-04-09T23:03:54.642Z,5.32
2023-04-09T23:06:22.433Z,4.93
2023-04-09T23:08:49.577Z,5.03
2023-04-09T23:11:16.606Z,4.63
2023-04-09T23:13:43.802Z,5.15
2023-04-09T23:16:11.416Z,5.25
2023-04-09T23:18:38.400Z,5.28
2023-04-09T23:21:06.938Z,5.18
2023-04-09T23:23:35.335Z,5.15
2023-04-09T23:26:02.497Z,4.75
2023-04-09T23:28:29.636Z,5.05
2023-04-09T23:30:56.827Z,5.47
2023-04-09T23:33:23.776Z,5.70
2023-04-09T23:35:51.323Z,5.05
2023-04-09T23:38:18.422Z,5.53
2023-04-09T23:40:47.263Z,5.20
2023-04-09T23:43:14.357Z,5.82
2023-04-09T23:45:43.346Z,5.53
2023-04-09T23:48:12.328Z,5.88
2023-04-09T23:50:41.163Z,5.50
2023-04-09T23:53:08.563Z,5.18
2023-04-09T23:55:40.939Z,5.90
2023-04-09T23:58:08.388Z,5.57
